sensor_id;sensor_type;location;lat;lon;timestamp;temperature;humidity
66128;DHT22;52925;52.436;-1.952;2022-10-15T00:01:10;15.60;73.60
66128;DHT22;52925;52.436;-1.952;2022-10-15T00:02:31;15.60;73.70
66128;DHT22;52925;52.436;-1.952;2022-10-15T00:03:51;15.60;73.70
66128;DHT22;52925;52.436;-1.952;2022-10-15T00:05:11;15.60;73.80
66128;DHT22;52925;52.436;-1.952;2022-10-15T00:06:32;15.60;73.70
66128;DHT22;52925;52.436;-1.952;2022-10-15T00:07:54;15.60;73.70
66128;DHT22;52925;52.436;-1.952;2022-10-15T00:09:14;15.60;73.70
66128;DHT22;52925;52.436;-1.952;2022-10-15T00:10:36;15.60;73.70
66128;DHT22;52925;52.436;-1.952;2022-10-15T00:11:56;15.60;73.80
66128;DHT22;52925;52.436;-1.952;2022-10-15T00:13:17;15.60;73.80
66128;DHT22;52925;52.436;-1.952;2022-10-15T00:14:36;15.50;73.80
66128;DHT22;52925;52.436;-1.952;2022-10-15T00:15:59;15.60;73.90
66128;DHT22;52925;52.436;-1.952;2022-10-15T00:17:19;15.60;74.00
66128;DHT22;52925;52.436;-1.952;2022-10-15T00:18:39;15.50;73.80
66128;DHT22;52925;52.436;-1.952;2022-10-15T00:19:59;15.60;73.90
66128;DHT22;52925;52.436;-1.952;2022-10-15T00:21:20;15.50;73.80
66128;DHT22;52925;52.436;-1.952;2022-10-15T00:22:41;15.50;73.90
66128;DHT22;52925;52.436;-1.952;2022-10-15T00:24:02;15.50;73.80
66128;DHT22;52925;52.436;-1.952;2022-10-15T00:25:23;15.50;73.90
66128;DHT22;52925;52.436;-1.952;2022-10-15T00:26:43;15.50;73.90
66128;DHT22;52925;52.436;-1.952;2022-10-15T00:28:04;15.50;74.00
66128;DHT22;52925;52.436;-1.952;2022-10-15T00:29:24;15.50;74.00
66128;DHT22;52925;52.436;-1.952;2022-10-15T00:30:47;15.50;74.00
66128;DHT22;52925;52.436;-1.952;2022-10-15T00:32:07;15.50;74.00
66128;DHT22;52925;52.436;-1.952;2022-10-15T00:33:30;15.50;74.00
66128;DHT22;52925;52.436;-1.952;2022-10-15T00:34:50;15.50;74.00
66128;DHT22;52925;52.436;-1.952;2022-10-15T00:36:12;15.50;74.00
66128;DHT22;52925;52.436;-1.952;2022-10-15T00:37:34;15.50;74.10
66128;DHT22;52925;52.436;-1.952;2022-10-15T00:38:54;15.50;74.10
66128;DHT22;52925;52.436;-1.952;2022-10-15T00:40:16;15.50;74.10
66128;DHT22;52925;52.436;-1.952;2022-10-15T00:41:40;15.50;74.00
66128;DHT22;52925;52.436;-1.952;2022-10-15T00:43:02;15.50;74.10
66128;DHT22;52925;52.436;-1.952;2022-10-15T00:44:52;15.50;74.10
66128;DHT22;52925;52.436;-1.952;2022-10-15T00:46:21;15.50;74.10
66128;DHT22;52925;52.436;-1.952;2022-10-15T00:47:46;15.50;74.30
66128;DHT22;52925;52.436;-1.952;2022-10-15T00:49:14;15.50;74.10
66128;DHT22;52925;52.436;-1.952;2022-10-15T00:50:37;15.50;74.20
66128;DHT22;52925;52.436;-1.952;2022-10-15T00:52:02;15.50;74.20
66128;DHT22;52925;52.436;-1.952;2022-10-15T00:53:22;15.50;74.10
66128;DHT22;52925;52.436;-1.952;2022-10-15T00:54:45;15.50;74.20
66128;DHT22;52925;52.436;-1.952;2022-10-15T00:56:08;15.50;74.20
66128;DHT22;52925;52.436;-1.952;2022-10-15T00:57:30;15.50;74.20
66128;DHT22;52925;52.436;-1.952;2022-10-15T00:58:52;15.50;74.30
66128;DHT22;52925;52.436;-1.952;2022-10-15T01:00:16;15.50;74.30
66128;DHT22;52925;52.436;-1.952;2022-10-15T01:01:36;15.50;74.20
66128;DHT22;52925;52.436;-1.952;2022-10-15T01:02:57;15.50;74.40
66128;DHT22;52925;52.436;-1.952;2022-10-15T01:04:18;15.50;74.40
66128;DHT22;52925;52.436;-1.952;2022-10-15T01:05:39;15.50;74.30
66128;DHT22;52925;52.436;-1.952;2022-10-15T01:07:03;15.50;74.30
66128;DHT22;52925;52.436;-1.952;2022-10-15T01:08:24;15.50;74.30
66128;DHT22;52925;52.436;-1.952;2022-10-15T01:09:45;15.50;74.20
66128;DHT22;52925;52.436;-1.952;2022-10-15T01:11:19;15.50;74.20
66128;DHT22;52925;52.436;-1.952;2022-10-15T01:12:54;15.50;74.30
66128;DHT22;52925;52.436;-1.952;2022-10-15T01:14:28;15.50;74.40
66128;DHT22;52925;52.436;-1.952;2022-10-15T01:15:56;15.40;75.10
66128;DHT22;52925;52.436;-1.952;2022-10-15T01:17:20;15.40;74.40
66128;DHT22;52925;52.436;-1.952;2022-10-15T01:18:43;15.50;74.40
66128;DHT22;52925;52.436;-1.952;2022-10-15T01:22:17;15.40;74.40
66128;DHT22;52925;52.436;-1.952;2022-10-15T01:25:44;15.50;74.40
66128;DHT22;52925;52.436;-1.952;2022-10-15T01:27:34;15.40;74.40
66128;DHT22;52925;52.436;-1.952;2022-10-15T01:29:05;15.40;74.40
66128;DHT22;52925;52.436;-1.952;2022-10-15T01:30:34;15.40;74.40
66128;DHT22;52925;52.436;-1.952;2022-10-15T01:32:02;15.50;74.40
66128;DHT22;52925;52.436;-1.952;2022-10-15T01:33:31;15.50;74.50
66128;DHT22;52925;52.436;-1.952;2022-10-15T01:35:01;15.40;74.40
66128;DHT22;52925;52.436;-1.952;2022-10-15T01:36:30;15.50;74.50
66128;DHT22;52925;52.436;-1.952;2022-10-15T01:37:54;15.40;74.40
66128;DHT22;52925;52.436;-1.952;2022-10-15T01:39:22;15.40;74.30
66128;DHT22;52925;52.436;-1.952;2022-10-15T01:40:49;15.40;74.40
66128;DHT22;52925;52.436;-1.952;2022-10-15T01:42:16;15.40;74.50
66128;DHT22;52925;52.436;-1.952;2022-10-15T01:43:43;15.40;74.50
66128;DHT22;52925;52.436;-1.952;2022-10-15T01:45:28;15.40;74.60
66128;DHT22;52925;52.436;-1.952;2022-10-15T01:47:07;15.40;74.50
66128;DHT22;52925;52.436;-1.952;2022-10-15T01:48:30;15.40;74.50
66128;DHT22;52925;52.436;-1.952;2022-10-15T01:49:52;15.40;74.40
66128;DHT22;52925;52.436;-1.952;2022-10-15T01:51:16;15.40;74.50
66128;DHT22;52925;52.436;-1.952;2022-10-15T01:52:39;15.40;74.50
66128;DHT22;52925;52.436;-1.952;2022-10-15T01:54:01;15.40;74.50
66128;DHT22;52925;52.436;-1.952;2022-10-15T01:55:25;15.40;74.50
66128;DHT22;52925;52.436;-1.952;2022-10-15T01:56:47;15.40;74.50
66128;DHT22;52925;52.436;-1.952;2022-10-15T01:58:13;15.40;74.40
66128;DHT22;52925;52.436;-1.952;2022-10-15T01:59:35;15.40;74.50
66128;DHT22;52925;52.436;-1.952;2022-10-15T02:00:56;15.40;74.50
66128;DHT22;52925;52.436;-1.952;2022-10-15T02:02:20;15.40;74.50
66128;DHT22;52925;52.436;-1.952;2022-10-15T02:03:44;15.40;74.50
66128;DHT22;52925;52.436;-1.952;2022-10-15T02:05:11;15.40;74.60
66128;DHT22;52925;52.436;-1.952;2022-10-15T02:06:37;15.40;74.50
66128;DHT22;52925;52.436;-1.952;2022-10-15T02:08:06;15.40;74.60
66128;DHT22;52925;52.436;-1.952;2022-10-15T02:09:39;15.40;74.50
66128;DHT22;52925;52.436;-1.952;2022-10-15T02:11:04;15.40;74.60
66128;DHT22;52925;52.436;-1.952;2022-10-15T02:12:35;15.40;74.50
66128;DHT22;52925;52.436;-1.952;2022-10-15T02:14:03;15.40;74.50
66128;DHT22;52925;52.436;-1.952;2022-10-15T02:15:32;15.40;74.50
66128;DHT22;52925;52.436;-1.952;2022-10-15T02:16:56;15.40;74.50
66128;DHT22;52925;52.436;-1.952;2022-10-15T02:18:27;15.40;74.50
66128;DHT22;52925;52.436;-1.952;2022-10-15T02:19:55;15.40;74.50
66128;DHT22;52925;52.436;-1.952;2022-10-15T02:21:23;15.40;74.50
66128;DHT22;52925;52.436;-1.952;2022-10-15T02:22:51;15.40;74.50
66128;DHT22;52925;52.436;-1.952;2022-10-15T02:24:18;15.40;74.50
66128;DHT22;52925;52.436;-1.952;2022-10-15T02:25:41;15.40;74.50
66128;DHT22;52925;52.436;-1.952;2022-10-15T02:27:03;15.40;74.50
66128;DHT22;52925;52.436;-1.952;2022-10-15T02:28:26;15.40;74.40
66128;DHT22;52925;52.436;-1.952;2022-10-15T02:29:49;15.40;74.50
66128;DHT22;52925;52.436;-1.952;2022-10-15T02:31:13;15.40;74.60
66128;DHT22;52925;52.436;-1.952;2022-10-15T02:32:37;15.40;74.50
66128;DHT22;52925;52.436;-1.952;2022-10-15T02:34:02;15.40;74.50
66128;DHT22;52925;52.436;-1.952;2022-10-15T02:35:24;15.40;74.50
66128;DHT22;52925;52.436;-1.952;2022-10-15T02:36:45;15.40;74.50
66128;DHT22;52925;52.436;-1.952;2022-10-15T02:38:09;15.40;74.50
66128;DHT22;52925;52.436;-1.952;2022-10-15T02:39:31;15.30;74.50
66128;DHT22;52925;52.436;-1.952;2022-10-15T02:40:53;15.40;74.60
66128;DHT22;52925;52.436;-1.952;2022-10-15T02:42:13;15.40;74.70
66128;DHT22;52925;52.436;-1.952;2022-10-15T02:43:36;15.30;74.60
66128;DHT22;52925;52.436;-1.952;2022-10-15T02:44:58;15.30;74.70
66128;DHT22;52925;52.436;-1.952;2022-10-15T02:46:19;15.30;74.70
66128;DHT22;52925;52.436;-1.952;2022-10-15T02:47:40;15.30;74.70
66128;DHT22;52925;52.436;-1.952;2022-10-15T02:49:02;15.30;74.70
66128;DHT22;52925;52.436;-1.952;2022-10-15T02:50:23;15.30;74.70
66128;DHT22;52925;52.436;-1.952;2022-10-15T02:51:43;15.30;74.70
66128;DHT22;52925;52.436;-1.952;2022-10-15T02:53:08;15.30;74.70
66128;DHT22;52925;52.436;-1.952;2022-10-15T02:54:29;15.30;74.80
66128;DHT22;52925;52.436;-1.952;2022-10-15T02:55:52;15.30;74.70
66128;DHT22;52925;52.436;-1.952;2022-10-15T02:57:13;15.30;75.50
66128;DHT22;52925;52.436;-1.952;2022-10-15T02:58:35;15.30;74.70
66128;DHT22;52925;52.436;-1.952;2022-10-15T02:59:55;15.30;74.70
66128;DHT22;52925;52.436;-1.952;2022-10-15T03:01:15;15.30;74.60
66128;DHT22;52925;52.436;-1.952;2022-10-15T03:02:36;15.30;74.60
66128;DHT22;52925;52.436;-1.952;2022-10-15T03:03:57;15.30;74.60
66128;DHT22;52925;52.436;-1.952;2022-10-15T03:05:19;15.30;74.70
66128;DHT22;52925;52.436;-1.952;2022-10-15T03:06:40;15.20;74.70
66128;DHT22;52925;52.436;-1.952;2022-10-15T03:08:01;15.30;74.90
66128;DHT22;52925;52.436;-1.952;2022-10-15T03:09:22;15.30;74.90
66128;DHT22;52925;52.436;-1.952;2022-10-15T03:10:42;15.30;74.80
66128;DHT22;52925;52.436;-1.952;2022-10-15T03:12:04;15.20;74.80
66128;DHT22;52925;52.436;-1.952;2022-10-15T03:13:26;15.30;74.80
66128;DHT22;52925;52.436;-1.952;2022-10-15T03:14:46;15.20;74.70
66128;DHT22;52925;52.436;-1.952;2022-10-15T03:16:09;15.30;74.80
66128;DHT22;52925;52.436;-1.952;2022-10-15T03:17:31;15.30;74.80
66128;DHT22;52925;52.436;-1.952;2022-10-15T03:18:53;15.30;74.80
66128;DHT22;52925;52.436;-1.952;2022-10-15T03:20:13;15.30;74.80
66128;DHT22;52925;52.436;-1.952;2022-10-15T03:21:36;15.20;74.80
66128;DHT22;52925;52.436;-1.952;2022-10-15T03:23:02;15.30;74.80
66128;DHT22;52925;52.436;-1.952;2022-10-15T03:24:23;15.30;74.90
66128;DHT22;52925;52.436;-1.952;2022-10-15T03:25:45;15.30;74.90
66128;DHT22;52925;52.436;-1.952;2022-10-15T03:27:14;15.30;74.90
66128;DHT22;52925;52.436;-1.952;2022-10-15T03:28:35;15.20;75.00
66128;DHT22;52925;52.436;-1.952;2022-10-15T03:29:55;15.30;74.90
66128;DHT22;52925;52.436;-1.952;2022-10-15T03:31:18;15.20;74.90
66128;DHT22;52925;52.436;-1.952;2022-10-15T03:32:41;15.20;74.80
66128;DHT22;52925;52.436;-1.952;2022-10-15T03:34:00;15.30;74.90
66128;DHT22;52925;52.436;-1.952;2022-10-15T03:35:22;15.30;75.00
66128;DHT22;52925;52.436;-1.952;2022-10-15T03:36:44;15.20;75.00
66128;DHT22;52925;52.436;-1.952;2022-10-15T03:38:06;15.20;74.90
66128;DHT22;52925;52.436;-1.952;2022-10-15T03:39:26;15.30;75.00
66128;DHT22;52925;52.436;-1.952;2022-10-15T03:40:49;15.20;74.90
66128;DHT22;52925;52.436;-1.952;2022-10-15T03:42:15;15.20;75.00
66128;DHT22;52925;52.436;-1.952;2022-10-15T03:43:38;15.20;75.00
66128;DHT22;52925;52.436;-1.952;2022-10-15T03:45:00;15.20;75.00
66128;DHT22;52925;52.436;-1.952;2022-10-15T03:46:19;15.30;75.00
66128;DHT22;52925;52.436;-1.952;2022-10-15T03:47:41;15.20;75.10
66128;DHT22;52925;52.436;-1.952;2022-10-15T03:49:02;15.20;75.00
66128;DHT22;52925;52.436;-1.952;2022-10-15T03:50:22;15.20;75.10
66128;DHT22;52925;52.436;-1.952;2022-10-15T03:51:45;15.30;75.10
66128;DHT22;52925;52.436;-1.952;2022-10-15T03:53:05;15.30;75.10
66128;DHT22;52925;52.436;-1.952;2022-10-15T03:54:26;15.30;75.00
66128;DHT22;52925;52.436;-1.952;2022-10-15T03:55:47;15.30;75.10
66128;DHT22;52925;52.436;-1.952;2022-10-15T03:57:08;15.30;75.10
66128;DHT22;52925;52.436;-1.952;2022-10-15T03:58:33;15.20;75.10
66128;DHT22;52925;52.436;-1.952;2022-10-15T03:59:57;15.30;75.20
66128;DHT22;52925;52.436;-1.952;2022-10-15T04:01:20;15.20;75.20
66128;DHT22;52925;52.436;-1.952;2022-10-15T04:02:40;15.20;75.20
66128;DHT22;52925;52.436;-1.952;2022-10-15T04:04:12;15.20;75.60
66128;DHT22;52925;52.436;-1.952;2022-10-15T04:05:33;15.20;75.20
66128;DHT22;52925;52.436;-1.952;2022-10-15T04:06:59;15.20;75.30
66128;DHT22;52925;52.436;-1.952;2022-10-15T04:08:20;15.20;75.30
66128;DHT22;52925;52.436;-1.952;2022-10-15T04:09:41;15.20;75.30
66128;DHT22;52925;52.436;-1.952;2022-10-15T04:11:17;15.20;75.30
66128;DHT22;52925;52.436;-1.952;2022-10-15T04:12:45;15.20;75.40
66128;DHT22;52925;52.436;-1.952;2022-10-15T04:14:08;15.20;75.40
66128;DHT22;52925;52.436;-1.952;2022-10-15T04:15:30;15.20;75.30
66128;DHT22;52925;52.436;-1.952;2022-10-15T04:16:55;15.20;75.40
66128;DHT22;52925;52.436;-1.952;2022-10-15T04:18:17;15.20;75.40
66128;DHT22;52925;52.436;-1.952;2022-10-15T04:19:42;15.20;75.50
66128;DHT22;52925;52.436;-1.952;2022-10-15T04:21:02;15.20;75.40
66128;DHT22;52925;52.436;-1.952;2022-10-15T04:22:27;15.20;75.50
66128;DHT22;52925;52.436;-1.952;2022-10-15T04:23:51;15.20;75.60
66128;DHT22;52925;52.436;-1.952;2022-10-15T04:25:24;15.20;75.60
66128;DHT22;52925;52.436;-1.952;2022-10-15T04:26:45;15.20;75.60
66128;DHT22;52925;52.436;-1.952;2022-10-15T04:28:06;15.20;75.60
66128;DHT22;52925;52.436;-1.952;2022-10-15T04:29:29;15.20;75.60
66128;DHT22;52925;52.436;-1.952;2022-10-15T04:31:02;15.20;75.50
66128;DHT22;52925;52.436;-1.952;2022-10-15T04:32:23;15.20;75.70
66128;DHT22;52925;52.436;-1.952;2022-10-15T04:33:47;15.20;75.60
66128;DHT22;52925;52.436;-1.952;2022-10-15T04:35:07;15.20;75.70
66128;DHT22;52925;52.436;-1.952;2022-10-15T04:36:55;15.20;75.70
66128;DHT22;52925;52.436;-1.952;2022-10-15T04:38:18;15.20;75.60
66128;DHT22;52925;52.436;-1.952;2022-10-15T04:39:53;15.20;75.70
66128;DHT22;52925;52.436;-1.952;2022-10-15T04:41:14;15.20;75.60
66128;DHT22;52925;52.436;-1.952;2022-10-15T04:42:55;15.20;75.80
66128;DHT22;52925;52.436;-1.952;2022-10-15T04:44:16;15.20;75.70
66128;DHT22;52925;52.436;-1.952;2022-10-15T04:45:44;15.20;75.70
66128;DHT22;52925;52.436;-1.952;2022-10-15T04:47:10;15.20;75.70
66128;DHT22;52925;52.436;-1.952;2022-10-15T04:48:38;15.20;75.80
66128;DHT22;52925;52.436;-1.952;2022-10-15T04:50:01;15.20;75.90
66128;DHT22;52925;52.436;-1.952;2022-10-15T04:51:43;15.20;75.90
66128;DHT22;52925;52.436;-1.952;2022-10-15T04:53:12;15.20;75.80
66128;DHT22;52925;52.436;-1.952;2022-10-15T04:54:34;15.10;75.80
66128;DHT22;52925;52.436;-1.952;2022-10-15T04:56:00;15.10;75.80
66128;DHT22;52925;52.436;-1.952;2022-10-15T04:57:21;15.20;75.90
66128;DHT22;52925;52.436;-1.952;2022-10-15T04:58:42;15.20;75.80
66128;DHT22;52925;52.436;-1.952;2022-10-15T05:00:04;15.20;75.90
66128;DHT22;52925;52.436;-1.952;2022-10-15T05:01:44;15.20;75.90
66128;DHT22;52925;52.436;-1.952;2022-10-15T05:03:05;15.20;76.00
66128;DHT22;52925;52.436;-1.952;2022-10-15T05:04:38;15.20;76.10
66128;DHT22;52925;52.436;-1.952;2022-10-15T05:06:00;15.10;75.90
66128;DHT22;52925;52.436;-1.952;2022-10-15T05:07:20;15.20;76.10
66128;DHT22;52925;52.436;-1.952;2022-10-15T05:08:42;15.20;76.10
66128;DHT22;52925;52.436;-1.952;2022-10-15T05:10:11;15.20;76.10
66128;DHT22;52925;52.436;-1.952;2022-10-15T05:11:35;15.20;76.00
66128;DHT22;52925;52.436;-1.952;2022-10-15T05:13:02;15.20;75.90
66128;DHT22;52925;52.436;-1.952;2022-10-15T05:14:26;15.20;75.90
66128;DHT22;52925;52.436;-1.952;2022-10-15T05:16:12;15.20;76.10
66128;DHT22;52925;52.436;-1.952;2022-10-15T05:17:34;15.20;76.00
66128;DHT22;52925;52.436;-1.952;2022-10-15T05:18:57;15.20;76.10
66128;DHT22;52925;52.436;-1.952;2022-10-15T05:20:18;15.20;76.20
66128;DHT22;52925;52.436;-1.952;2022-10-15T05:21:39;15.20;76.20
66128;DHT22;52925;52.436;-1.952;2022-10-15T05:23:07;15.20;76.10
66128;DHT22;52925;52.436;-1.952;2022-10-15T05:24:28;15.20;76.10
66128;DHT22;52925;52.436;-1.952;2022-10-15T05:26:00;15.20;76.10
66128;DHT22;52925;52.436;-1.952;2022-10-15T05:27:19;15.20;76.10
66128;DHT22;52925;52.436;-1.952;2022-10-15T05:28:41;15.20;76.10
66128;DHT22;52925;52.436;-1.952;2022-10-15T05:30:01;15.20;76.20
66128;DHT22;52925;52.436;-1.952;2022-10-15T05:31:30;15.20;76.20
66128;DHT22;52925;52.436;-1.952;2022-10-15T05:32:57;15.20;76.20
66128;DHT22;52925;52.436;-1.952;2022-10-15T05:34:18;15.20;76.20
66128;DHT22;52925;52.436;-1.952;2022-10-15T05:35:47;15.20;76.20
66128;DHT22;52925;52.436;-1.952;2022-10-15T05:37:07;15.20;76.10
66128;DHT22;52925;52.436;-1.952;2022-10-15T05:38:28;15.20;76.10
66128;DHT22;52925;52.436;-1.952;2022-10-15T05:39:48;15.20;76.10
66128;DHT22;52925;52.436;-1.952;2022-10-15T05:41:10;15.20;76.10
66128;DHT22;52925;52.436;-1.952;2022-10-15T05:42:31;15.20;76.10
66128;DHT22;52925;52.436;-1.952;2022-10-15T05:43:54;15.20;76.10
66128;DHT22;52925;52.436;-1.952;2022-10-15T05:45:18;15.20;76.10
66128;DHT22;52925;52.436;-1.952;2022-10-15T05:46:39;15.20;76.00
66128;DHT22;52925;52.436;-1.952;2022-10-15T05:47:59;15.20;76.10
66128;DHT22;52925;52.436;-1.952;2022-10-15T05:49:20;15.10;76.80
66128;DHT22;52925;52.436;-1.952;2022-10-15T05:50:51;15.20;76.30
66128;DHT22;52925;52.436;-1.952;2022-10-15T05:52:17;15.10;76.10
66128;DHT22;52925;52.436;-1.952;2022-10-15T05:53:58;15.10;76.10
66128;DHT22;52925;52.436;-1.952;2022-10-15T05:55:19;15.10;76.20
66128;DHT22;52925;52.436;-1.952;2022-10-15T05:56:41;15.20;76.30
66128;DHT22;52925;52.436;-1.952;2022-10-15T05:58:02;15.20;76.20
66128;DHT22;52925;52.436;-1.952;2022-10-15T05:59:23;15.10;76.10
66128;DHT22;52925;52.436;-1.952;2022-10-15T06:00:43;15.10;76.20
66128;DHT22;52925;52.436;-1.952;2022-10-15T06:02:04;15.10;76.20
66128;DHT22;52925;52.436;-1.952;2022-10-15T06:03:25;15.20;76.30
66128;DHT22;52925;52.436;-1.952;2022-10-15T06:04:46;15.20;76.20
66128;DHT22;52925;52.436;-1.952;2022-10-15T06:06:13;15.20;76.10
66128;DHT22;52925;52.436;-1.952;2022-10-15T06:07:33;15.20;76.10
66128;DHT22;52925;52.436;-1.952;2022-10-15T06:08:57;15.10;76.00
66128;DHT22;52925;52.436;-1.952;2022-10-15T06:10:17;15.10;76.00
66128;DHT22;52925;52.436;-1.952;2022-10-15T06:11:38;15.10;76.10
66128;DHT22;52925;52.436;-1.952;2022-10-15T06:13:01;15.10;76.10
66128;DHT22;52925;52.436;-1.952;2022-10-15T06:14:21;15.10;76.00
66128;DHT22;52925;52.436;-1.952;2022-10-15T06:15:44;15.10;76.00
66128;DHT22;52925;52.436;-1.952;2022-10-15T06:17:04;15.10;76.00
66128;DHT22;52925;52.436;-1.952;2022-10-15T06:18:25;15.10;75.90
66128;DHT22;52925;52.436;-1.952;2022-10-15T06:19:48;15.10;76.00
66128;DHT22;52925;52.436;-1.952;2022-10-15T06:21:09;15.10;75.90
66128;DHT22;52925;52.436;-1.952;2022-10-15T06:23:51;15.20;75.90
66128;DHT22;52925;52.436;-1.952;2022-10-15T06:25:12;15.10;75.80
66128;DHT22;52925;52.436;-1.952;2022-10-15T06:26:32;15.10;75.80
66128;DHT22;52925;52.436;-1.952;2022-10-15T06:27:53;15.10;75.70
66128;DHT22;52925;52.436;-1.952;2022-10-15T06:29:15;15.10;75.70
66128;DHT22;52925;52.436;-1.952;2022-10-15T06:30:35;15.10;75.70
66128;DHT22;52925;52.436;-1.952;2022-10-15T06:31:55;15.10;75.70
66128;DHT22;52925;52.436;-1.952;2022-10-15T06:33:16;15.10;75.70
66128;DHT22;52925;52.436;-1.952;2022-10-15T06:34:36;15.10;75.70
66128;DHT22;52925;52.436;-1.952;2022-10-15T06:36:00;15.10;75.80
66128;DHT22;52925;52.436;-1.952;2022-10-15T06:37:21;15.10;75.70
66128;DHT22;52925;52.436;-1.952;2022-10-15T06:38:46;15.10;75.60
66128;DHT22;52925;52.436;-1.952;2022-10-15T06:40:10;15.10;75.60
66128;DHT22;52925;52.436;-1.952;2022-10-15T06:41:34;15.10;75.50
66128;DHT22;52925;52.436;-1.952;2022-10-15T06:43:02;15.10;75.50
66128;DHT22;52925;52.436;-1.952;2022-10-15T06:44:25;15.10;75.50
66128;DHT22;52925;52.436;-1.952;2022-10-15T06:45:45;15.10;75.40
66128;DHT22;52925;52.436;-1.952;2022-10-15T06:47:09;15.10;75.50
66128;DHT22;52925;52.436;-1.952;2022-10-15T06:48:30;15.00;75.40
66128;DHT22;52925;52.436;-1.952;2022-10-15T06:49:51;15.00;75.50
66128;DHT22;52925;52.436;-1.952;2022-10-15T06:51:11;15.00;75.40
66128;DHT22;52925;52.436;-1.952;2022-10-15T06:52:39;15.00;75.50
66128;DHT22;52925;52.436;-1.952;2022-10-15T06:54:00;15.00;75.50
66128;DHT22;52925;52.436;-1.952;2022-10-15T06:55:20;15.00;75.50
66128;DHT22;52925;52.436;-1.952;2022-10-15T06:56:41;15.00;75.50
66128;DHT22;52925;52.436;-1.952;2022-10-15T06:58:02;15.00;75.50
66128;DHT22;52925;52.436;-1.952;2022-10-15T06:59:22;15.10;75.40
66128;DHT22;52925;52.436;-1.952;2022-10-15T07:00:44;15.00;75.40
66128;DHT22;52925;52.436;-1.952;2022-10-15T07:02:05;15.00;75.40
66128;DHT22;52925;52.436;-1.952;2022-10-15T07:03:26;15.00;75.40
66128;DHT22;52925;52.436;-1.952;2022-10-15T07:04:45;15.00;75.40
66128;DHT22;52925;52.436;-1.952;2022-10-15T07:06:10;15.00;75.40
66128;DHT22;52925;52.436;-1.952;2022-10-15T07:07:31;15.00;75.40
66128;DHT22;52925;52.436;-1.952;2022-10-15T07:08:52;15.10;75.40
66128;DHT22;52925;52.436;-1.952;2022-10-15T07:10:13;15.00;75.30
66128;DHT22;52925;52.436;-1.952;2022-10-15T07:11:33;15.00;75.40
66128;DHT22;52925;52.436;-1.952;2022-10-15T07:12:54;15.00;75.30
66128;DHT22;52925;52.436;-1.952;2022-10-15T07:14:15;15.00;75.30
66128;DHT22;52925;52.436;-1.952;2022-10-15T07:15:36;15.00;75.40
66128;DHT22;52925;52.436;-1.952;2022-10-15T07:16:58;15.10;75.40
66128;DHT22;52925;52.436;-1.952;2022-10-15T07:18:21;15.10;75.30
66128;DHT22;52925;52.436;-1.952;2022-10-15T07:19:42;15.00;75.20
66128;DHT22;52925;52.436;-1.952;2022-10-15T07:21:05;15.00;75.20
66128;DHT22;52925;52.436;-1.952;2022-10-15T07:22:26;15.00;75.30
66128;DHT22;52925;52.436;-1.952;2022-10-15T07:23:47;15.00;75.20
66128;DHT22;52925;52.436;-1.952;2022-10-15T07:25:08;15.00;75.30
66128;DHT22;52925;52.436;-1.952;2022-10-15T07:26:29;15.00;75.30
66128;DHT22;52925;52.436;-1.952;2022-10-15T07:27:50;15.00;75.30
66128;DHT22;52925;52.436;-1.952;2022-10-15T07:29:10;15.00;75.20
66128;DHT22;52925;52.436;-1.952;2022-10-15T07:30:30;15.00;75.20
66128;DHT22;52925;52.436;-1.952;2022-10-15T07:31:51;15.10;75.20
66128;DHT22;52925;52.436;-1.952;2022-10-15T07:33:14;15.10;75.20
66128;DHT22;52925;52.436;-1.952;2022-10-15T07:34:43;15.10;75.20
66128;DHT22;52925;52.436;-1.952;2022-10-15T07:36:04;15.00;75.20
66128;DHT22;52925;52.436;-1.952;2022-10-15T07:37:26;15.00;75.20
66128;DHT22;52925;52.436;-1.952;2022-10-15T07:38:46;15.00;75.20
66128;DHT22;52925;52.436;-1.952;2022-10-15T07:39:50;15.00;75.20
66128;DHT22;52925;52.436;-1.952;2022-10-15T07:41:12;15.00;75.20
66128;DHT22;52925;52.436;-1.952;2022-10-15T07:42:35;15.00;75.20
66128;DHT22;52925;52.436;-1.952;2022-10-15T07:43:55;15.00;75.30
66128;DHT22;52925;52.436;-1.952;2022-10-15T07:45:15;15.00;75.20
66128;DHT22;52925;52.436;-1.952;2022-10-15T07:46:36;15.00;75.20
66128;DHT22;52925;52.436;-1.952;2022-10-15T07:47:57;15.00;75.80
66128;DHT22;52925;52.436;-1.952;2022-10-15T07:49:19;15.00;75.00
66128;DHT22;52925;52.436;-1.952;2022-10-15T07:50:40;15.00;75.10
66128;DHT22;52925;52.436;-1.952;2022-10-15T07:52:01;15.00;75.10
66128;DHT22;52925;52.436;-1.952;2022-10-15T07:53:22;15.00;75.00
66128;DHT22;52925;52.436;-1.952;2022-10-15T07:54:44;15.00;75.10
66128;DHT22;52925;52.436;-1.952;2022-10-15T07:56:11;15.00;75.10
66128;DHT22;52925;52.436;-1.952;2022-10-15T07:57:32;15.00;75.10
66128;DHT22;52925;52.436;-1.952;2022-10-15T07:58:51;15.00;75.10
66128;DHT22;52925;52.436;-1.952;2022-10-15T08:00:12;15.00;75.20
66128;DHT22;52925;52.436;-1.952;2022-10-15T08:01:32;15.00;75.20
66128;DHT22;52925;52.436;-1.952;2022-10-15T08:02:53;15.00;75.20
66128;DHT22;52925;52.436;-1.952;2022-10-15T08:04:13;15.00;75.00
66128;DHT22;52925;52.436;-1.952;2022-10-15T08:05:38;15.00;75.00
66128;DHT22;52925;52.436;-1.952;2022-10-15T08:06:59;15.00;75.00
66128;DHT22;52925;52.436;-1.952;2022-10-15T08:08:20;15.00;75.00
66128;DHT22;52925;52.436;-1.952;2022-10-15T08:09:40;15.00;75.10
66128;DHT22;52925;52.436;-1.952;2022-10-15T08:11:04;15.00;75.00
66128;DHT22;52925;52.436;-1.952;2022-10-15T08:12:23;15.00;75.00
66128;DHT22;52925;52.436;-1.952;2022-10-15T08:13:44;15.00;75.20
66128;DHT22;52925;52.436;-1.952;2022-10-15T08:15:07;15.00;75.20
66128;DHT22;52925;52.436;-1.952;2022-10-15T08:16:27;15.00;75.30
66128;DHT22;52925;52.436;-1.952;2022-10-15T08:17:51;15.00;75.50
66128;DHT22;52925;52.436;-1.952;2022-10-15T08:19:12;15.00;75.50
66128;DHT22;52925;52.436;-1.952;2022-10-15T08:20:37;14.90;75.50
66128;DHT22;52925;52.436;-1.952;2022-10-15T08:21:58;15.00;75.50
66128;DHT22;52925;52.436;-1.952;2022-10-15T08:23:18;15.00;75.50
66128;DHT22;52925;52.436;-1.952;2022-10-15T08:24:38;15.00;75.40
66128;DHT22;52925;52.436;-1.952;2022-10-15T08:25:59;15.00;75.40
66128;DHT22;52925;52.436;-1.952;2022-10-15T08:27:20;15.00;75.30
66128;DHT22;52925;52.436;-1.952;2022-10-15T08:28:41;15.00;75.30
66128;DHT22;52925;52.436;-1.952;2022-10-15T08:30:01;15.00;75.30
66128;DHT22;52925;52.436;-1.952;2022-10-15T08:31:22;15.00;75.30
66128;DHT22;52925;52.436;-1.952;2022-10-15T08:32:42;15.00;75.30
66128;DHT22;52925;52.436;-1.952;2022-10-15T08:34:03;14.90;75.30
66128;DHT22;52925;52.436;-1.952;2022-10-15T08:35:24;14.90;75.30
66128;DHT22;52925;52.436;-1.952;2022-10-15T08:36:46;14.90;75.30
66128;DHT22;52925;52.436;-1.952;2022-10-15T08:38:07;15.00;75.40
66128;DHT22;52925;52.436;-1.952;2022-10-15T08:39:28;14.90;75.40
66128;DHT22;52925;52.436;-1.952;2022-10-15T08:40:51;14.90;75.40
66128;DHT22;52925;52.436;-1.952;2022-10-15T08:42:17;14.90;75.40
66128;DHT22;52925;52.436;-1.952;2022-10-15T08:43:40;14.90;75.20